NCAR-RAP Real-Time Weather Data

Output produced by METARs form (19 June 2019  10:47 UTC)
found at http://weather.rap.ucar.edu/surface/
 
KBOS 191038Z 14004KT 1/2SM R04R/1800V2600FT FG BKN003 OVC010 16/15 A2988 RMK AO2 VIS W-NW 1 T01610150
KBOS 191023Z 12004KT 1/2SM R04R/1600V2200FT FG OVC002 16/15 A2988 RMK AO2 VIS W-NW 1 T01610150
KBOS 191009Z 09005KT 1/2SM R04R/2000V3000FT FG OVC003 16/15 A2988 RMK AO2 VIS W-NW 1 T01610150
KBOS 190954Z 08004KT 1SM R04R/2800V6000FT BR OVC003 16/15 A2987 RMK AO2 SLP115 VIS W-NW 4 T01610150
KBOS 190932Z 08004KT 1SM R04R/P6000FT BR OVC003 17/15 A2987 RMK AO2 T01670150
KBOS 190854Z 00000KT 3SM BR OVC003 17/16 A2987 RMK AO2 SLP115 T01670156 56006
KBOS 190754Z 00000KT 3SM BR OVC003 17/16 A2987 RMK AO2 SLP115 T01670156
KBOS 190654Z 36005KT 3SM BR OVC002 16/15 A2988 RMK AO2 SLP117 T01610150
KBOS 190625Z 04004KT 3SM BR OVC002 16/15 A2988 RMK AO2 T01610150
KBOS 190611Z 06003KT 1SM R04R/P6000FT BR OVC002 16/15 A2988 RMK AO2 T01610150
KBOS 190554Z 03003KT 3/4SM R04R/2600V3500FT BR VV002 16/15 A2989 RMK AO2 SLP120 T01610150 10178 20161 56006
KBOS 190527Z 02003KT 1/2SM R04R/2000V4000FT FG VV002 16/15 A2989 RMK AO2 T01610150
KBOS 190454Z 00000KT 1SM R04R/P6000FT BR OVC003 17/16 A2989 RMK AO2 SLP122 T01670156 402110161
KBOS 190431Z 02005KT 2SM BR OVC003 16/15 A2989 RMK AO2 T01610150
KBOS 190354Z 02005KT 3SM BR BKN002 OVC010 17/15 A2990 RMK AO2 SLP124 T01670150
KBOS 190254Z 02005KT 3SM BR OVC002 17/15 A2991 RMK AO2 SLP126 T01670150 55003
KBOS 190209Z 02005KT 5SM BR BKN002 BKN009 OVC120 17/16 A2990 RMK AO2 T01720156
KBOS 190154Z 00000KT 5SM BR FEW002 BKN009 OVC015 17/16 A2990 RMK AO2 SLP124 T01720156
KBOS 190137Z 06003KT 5SM BR FEW003 BKN009 OVC015 17/16 A2990 RMK AO2 T01720156
KBOS 190126Z 04005KT 5SM BR FEW003 SCT009 BKN015 OVC130 17/16 A2990 RMK AO2 T01720156
KBOS 190109Z 02004KT 6SM BR FEW003 SCT019 BKN031 OVC130 18/16 A2990 RMK AO2 T01780161
KBOS 190054Z 00000KT 6SM BR FEW003 BKN019 BKN028 OVC130 18/16 A2990 RMK AO2 SLP125 T01780156
KBOS 182354Z 02005KT 5SM BR FEW001 SCT004 OVC014 18/16 A2991 RMK AO2 SLP129 60010 T01780161 10200 20172 55002
KBOS 182349Z 03005KT 5SM BR FEW001 BKN004 OVC017 18/16 A2991 RMK AO2
KBOS 182254Z 08005KT 5SM BR SCT001 BKN014 OVC021 17/16 A2991 RMK AO2 RAE24 SLP127 P0000 T01720156
KBOS 182211Z 03005KT 4SM -RA BR FEW004 SCT014 OVC021 18/17 A2991 RMK AO2 P0000 T01830167
KBOS 182154Z 03006KT 3SM -RA BR FEW004 OVC014 18/17 A2991 RMK AO2 RAB06 SLP128 P0003 T01830167
KBOS 182106Z 03004KT 4SM -RA BR FEW004 BKN012 OVC017 19/17 A2992 RMK AO2 RAB06 P0000 T01940172
KBOS 182054Z 04004KT 5SM BR FEW003 BKN009 OVC017 19/17 A2992 RMK AO2 RAE30 SLP131 P0000 60007 T01940172 55010
KBOS 182004Z 00000KT 5SM -RA BR FEW003 BKN008 OVC014 19/18 A2992 RMK AO2 P0000 T01890178
KBOS 181954Z 12003KT 5SM -RA BR FEW004 BKN010 OVC016 18/17 A2992 RMK AO2 SLP130 P0003 T01830167
KBOS 181947Z 11003KT 5SM -RA BR FEW004 BKN010 OVC016 18/17 A2992 RMK AO2 P0003 T01830167
KBOS 181934Z 09003KT 3/4SM R04R/P6000FT -RA BR FEW004 BKN010 OVC016 18/17 A2993 RMK AO2 SFC VIS 3 P0003 T01780167
KBOS 181854Z 08005KT 3/4SM R04R/P6000FT -RA BR FEW003 BKN016 OVC038 18/17 A2994 RMK AO2 SFC VIS 3 RAB1753 SLP140 VIS NE-SE 1 P0004 T01830167
KBOS 181849Z 07005KT 3/4SM R04R/P6000FT -RA BR SCT003 BKN016 OVC036 18/17 A2995 RMK AO2 SFC VIS 3 RAB1753 VIS NE-SE 1 P0004
KBOS 181840Z 07005KT 3/4SM R04R/P6000FT -RA BR SCT003 BKN013 OVC035 18/17 A2995 RMK AO2 SFC VIS 3 RAB1753 P0002 T01830167
KBOS 181818Z 06005KT 1/2SM R04R/P6000FT -RA BR BKN003 OVC012 18/17 A2996 RMK AO2 SFC VIS 2 1/2 RAB1753 P0000 T01830167
KBOS 181749Z 07006KT 2SM BR BKN004 OVC012 19/17 A2996 RMK AO2 SFC VIS 4 SLP144 T01890167 10211 20183 58006
KBOS 181748Z 07006KT 2SM BR BKN004 OVC012 19/16 A2996 RMK AO2 SFC VIS 4
KBOS 181717Z 08006KT 5SM BR BKN005 OVC029 19/17 A2997 RMK AO2 T01940167
KBOS 181654Z 08007KT 4SM BR FEW007 BKN022 OVC028 19/17 A2997 RMK AO2 SLP148 T01890167
KBOS 181636Z 07007KT 7SM BKN007 OVC024 18/16 A2997 RMK AO2 T01830156
KBOS 181627Z 06008KT 7SM SCT007 BKN023 OVC160 19/16 A2997 RMK AO2 CIG 006 E T01890156
KBOS 181554Z 08008KT 7SM BKN021 OVC160 19/16 A2997 RMK AO2 SLP148 T01940156
KBOS 181507Z 09005KT 10SM SCT017 SCT055 OVC160 21/17 A2997 RMK AO2 T02110167
KBOS 181454Z 07006KT 10SM BKN017 BKN110 OVC170 21/16 A2998 RMK AO2 SLP150 T02060161 57001
KBOS 181417Z 07005KT 10SM BKN019 BKN110 OVC170 19/16 A2998 RMK AO2 T01940156
KBOS 181354Z 07007KT 10SM FEW040 FEW110 OVC170 19/15 A2998 RMK AO2 SLP152 T01890150
KBOS 181254Z 06004KT 10SM FEW011 SCT040 OVC200 21/17 A2997 RMK AO2 SLP149 T02060172